• Join FlightAware (Why Join?)
  • Login
  • US Flag 
01:14PM EDT


 

Airport Tracker/Info


-or-


 

Live Flight TrackerFlight Track Log ✈ ASQ6151 ✈ 02-May-2013 ✈ KSAV - KORD

Flight Track Log - Related Links

Times and Time Zones

All times are in EDT time to prevent confusion due to time zone crossing. See the ASQ6151 flight status page for this flight to view local times or setup timezone preferences in your user account.

Time Position Orientation Groundspeed Altitude Reporting Facility
EDT Latitude Longitude Course Direction KTS MPH feet Rate Location/Type
05:50PM 32.1928 -81.1889 North 237 273 3,500  Level Jacksonville Center
05:51PM 32.2658 -81.1925 358° North 262 302 5,400 2,100 Climbing Jacksonville Center
05:52PM 32.3469 -81.1836 North 262 302 7,700 2,220 Climbing Jacksonville Center
05:53PM 32.4244 -81.1919 355° North 274 315 9,900 1,440 Climbing Jacksonville Center
05:54PM 32.5083 -81.2297 339° North 307 353 10,600 780 Climbing Jacksonville Center
05:55PM 32.6707 -81.1500 North  Level FlightAware Approximate
05:55PM 32.5925 -81.2700 338° Northwest 338 389 11,500  Level Jacksonville Center
05:56PM 32.7640 -81.1420 North  Level FlightAware Approximate
05:56PM 32.6869 -81.3128 339° North 355 409 12,900  Level Jacksonville Center
05:57PM 32.7856 -81.3556 340° North 362 417 14,400 1,440 Climbing Jacksonville Center
05:58PM 32.8800 -81.4033 337° Northwest 367 422 15,800 1,320 Climbing Jacksonville Center
05:59PM 32.9808 -81.4489 339° North 372 428 17,100 1,140 Climbing Jacksonville Center
06:00PM 33.0772 -81.4944 338° Northwest 377 434 18,100 1,080 Climbing Jacksonville Center
06:01PM 33.1781 -81.5425 338° Northwest 377 434 19,300 1,200 Climbing Jacksonville Center
06:02PM 33.2914 -81.5953 339° North 382 440 20,600 1,200 Climbing Jacksonville Center
06:03PM 33.3961 -81.6436 339° North 387 445 21,700 1,140 Climbing Jacksonville Center
06:04PM 33.5011 -81.6944 338° Northwest 394 453 22,900 1,140 Climbing Jacksonville Center
06:06PM 33.6836 -81.7794 339° North 386 444 25,000 1,140 Climbing Atlanta Center
06:07PM 33.7828 -81.8294 337° Northwest 386 444 26,200 1,080 Climbing Atlanta Center
06:08PM 33.8878 -81.8767 340° North 392 451 27,200 960 Climbing Atlanta Center
06:09PM 33.9889 -81.9267 338° Northwest 392 451 28,200 960 Climbing Atlanta Center
06:10PM 34.0878 -81.9744 338° Northwest 392 451 29,200 1,020 Climbing Atlanta Center
06:11PM 34.2014 -82.0294 338° Northwest 398 458 30,300 1,020 Climbing Atlanta Center
06:12PM 34.3067 -82.0772 339° North 398 458 31,300 900 Climbing Atlanta Center
06:13PM 34.4075 -82.1278 338° Northwest 398 458 32,200 900 Climbing Atlanta Center
06:14PM 34.5106 -82.1758 339° North 398 458 33,200 960 Climbing Atlanta Center
06:15PM 34.6136 -82.2292 337° Northwest 398 458 34,200 900 Climbing Atlanta Center
06:16PM 34.7186 -82.2800 338° Northwest 398 458 35,000 660 Climbing Atlanta Center
06:17PM 34.8239 -82.3333 337° Northwest 403 464 35,600 480 Climbing Atlanta Center
06:18PM 34.9289 -82.3794 340° North 403 464 36,000 180 Climbing Atlanta Center
06:19PM 35.0458 -82.4025 351° North 403 464 36,000  Level Atlanta Center
06:20PM 35.1694 -82.4228 352° North 421 484 36,000  Level Atlanta Center
06:21PM 35.2992 -82.4533 349° North 454 522 36,000  Level Atlanta Center
06:22PM 35.4286 -82.4764 352° North 468 539 36,000  Level Atlanta Center
06:23PM 35.5564 -82.5044 350° North 468 539 36,000  Level Atlanta Center
06:24PM 35.6719 -82.5664 336° Northwest 454 522 36,000  Level Atlanta Center
06:25PM 35.7747 -82.6208 337° Northwest 447 514 36,000  Level Atlanta Center
06:26PM 35.8903 -82.6853 336° Northwest 447 514 36,000  Level Atlanta Center
06:27PM 36.0036 -82.7528 334° Northwest 447 514 36,000  Level Atlanta Center
06:28PM 36.1189 -82.8178 336° Northwest 447 514 36,000  Level Atlanta Center
06:30PM 36.3447 -82.9439 336° Northwest 449 517 36,000  Level Indianapolis Center
06:31PM 36.4569 -83.0100 335° Northwest 447 514 36,000  Level Indianapolis Center
06:32PM 36.5725 -83.0744 336° Northwest 452 520 36,000  Level Indianapolis Center
06:33PM 36.6858 -83.1411 335° Northwest 448 516 36,000  Level Indianapolis Center
06:34PM 36.8200 -83.2186 335° Northwest 449 517 36,000  Level Indianapolis Center
06:35PM 36.9361 -83.2864 335° Northwest 451 519 36,000  Level Indianapolis Center
06:36PM 37.0508 -83.3533 335° Northwest 455 524 36,000  Level Indianapolis Center
06:37PM 37.1656 -83.4206 335° Northwest 453 521 36,000  Level Indianapolis Center
06:38PM 37.2794 -83.4878 335° Northwest 453 521 36,000  Level Indianapolis Center
06:39PM 37.3942 -83.5567 334° Northwest 453 521 36,000  Level Indianapolis Center
06:40PM 37.5097 -83.6247 335° Northwest 456 525 36,000  Level Indianapolis Center
06:41PM 37.6436 -83.7036 335° Northwest 455 524 36,000  Level Indianapolis Center
06:42PM 37.7586 -83.7733 334° Northwest 455 524 36,000  Level Indianapolis Center
06:44PM 37.8750 -83.8400 336° Northwest 459 528 36,000  Level Indianapolis Center
06:45PM 37.9744 -83.9333 324° Northwest 447 514 36,000  Level Indianapolis Center
06:46PM 38.0331 -84.0708 298° West 442 509 36,000 -660 Level Indianapolis Center
06:47PM 38.0961 -84.2267 297° West 429 494 34,700 -1,140 Descending Indianapolis Center
06:48PM 38.1528 -84.3542 300° West 417 480 33,700 -840 Descending Indianapolis Center
06:49PM 38.2092 -84.4903 298° West 430 495 33,000 -360 Descending Indianapolis Center
06:50PM 38.2664 -84.6289 298° West 440 506 33,000  Level Indianapolis Center
06:51PM 38.3242 -84.7672 298° West 441 507 33,000  Level Indianapolis Center
06:52PM 38.3831 -84.9047 299° West 442 509 33,000  Level Indianapolis Center
06:53PM 38.4600 -85.0503 304° West 427 491 33,000  Level Indianapolis Center
06:54PM 38.5833 -85.0936 345° North 449 517 33,000  Level Indianapolis Center
06:55PM 38.7014 -85.1314 346° North 446 513 33,000  Level Indianapolis Center
06:56PM 38.8233 -85.1675 347° North 449 517 33,000 -120 Level Indianapolis Center
06:57PM 38.9456 -85.2028 347° North 451 519 32,800 -720 Descending Indianapolis Center
06:58PM 39.0919 -85.2478 347° North 454 522 31,600 -1,080 Descending Indianapolis Center
06:59PM 39.2150 -85.2853 347° North 455 524 30,600 -780 Descending Indianapolis Center
07:00PM 39.3400 -85.3233 347° North 460 529 30,000 -780 Descending Indianapolis Center
07:01PM 39.4647 -85.3611 347° North 463 533 29,100 -960 Descending Indianapolis Center
07:02PM 39.5875 -85.3981 347° North 458 527 28,100 -1,020 Descending Indianapolis Center
07:03PM 39.7306 -85.4414 347° North 447 514 27,100 -900 Descending Indianapolis Center
07:04PM 39.8483 -85.4786 346° North 442 509 26,300 -540 Descending Indianapolis Center
07:05PM 39.9642 -85.5139 347° North 434 499 26,000 -180 Descending Indianapolis Center
07:06PM 40.0833 -85.5508 347° North 441 507 26,000 -360 Level Indianapolis Center
07:07PM 40.2072 -85.5900 346° North 457 526 25,300 -780 Descending Indianapolis Center
07:08PM 40.3572 -85.6367 347° North 463 533 24,400 -660 Descending Indianapolis Center
07:09PM 40.4753 -85.6728 347° North 447 514 24,000 -300 Descending Indianapolis Center
07:11PM 40.6147 -85.7283 343° North 443 510 23,800 -540 Descending Chicago Center
07:12PM 40.7025 -85.8575 312° West 439 505 22,800 -900 Descending Chicago Center
07:13PM 40.7769 -85.9900 307° West 447 514 22,000 -420 Descending Chicago Center
07:14PM 40.8481 -86.1169 307° West 434 499 22,000  Level Chicago Center
07:15PM 40.9183 -86.2431 306° West 427 491 22,000  Level Chicago Center
07:16PM 40.9889 -86.3717 306° West 430 495 22,000 -120 Level Chicago Center
07:17PM 41.0744 -86.5258 306° West 433 498 21,800 -840 Descending Chicago Center
07:18PM 41.1408 -86.6561 304° West 428 493 20,300 -2,040 Descending Chicago Center
07:19PM 41.1983 -86.7922 299° West 396 456 17,700 -2,280 Descending Chicago Center
07:20PM 41.2442 -86.9019 299° West 346 398 15,700 -2,040 Descending Chicago Center
07:21PM 41.2875 -87.0092 298° West 333 383 13,600 -2,040 Descending Chicago Center
07:22PM 41.3314 -87.1161 299° West 332 382 11,500 -1,260 Descending Chicago Center
07:23PM 41.3797 -87.2131 304° West 319 367 11,000 -240 Descending Chicago Center
07:24PM 41.4667 -87.3167 318° Northwest 301 346 11,000  Level Chicago TRACON
07:25PM 41.5192 -87.3758 320° Northwest 299 344 11,000 -360 Level Chicago Center
07:26PM 41.5808 -87.4464 319° Northwest 294 338 10,300 -900 Descending Chicago Center
07:27PM 41.6442 -87.5150 321° Northwest 295 339 9,200 -1,140 Descending Chicago Center
07:28PM 41.7067 -87.5856 320° Northwest 297 342 8,000 -1,080 Descending Chicago Center
07:29PM 41.7794 -87.6667 320° Northwest 289 333 7,000 -540 Descending Chicago Center
07:30PM 41.8333 -87.7333 317° Northwest 291 335 7,000  Level Chicago TRACON
07:31PM 41.8500 -87.8167 285° West 243 280 7,000 -600 Level Chicago TRACON
07:32PM 41.8167 -87.9000 242° Southwest 234 269 5,900 -1,080 Descending Chicago TRACON
07:32PM 41.8161 -87.9053 262° West 237 273 5,700 -1,440 Descending Chicago Center
07:33PM 41.7997 -87.9839 254° West 243 280 4,100 -1,380 Descending Chicago Center
07:34PM 41.8667 -87.9972 352° North 224 258 2,900 -1,020 Descending Chicago Center
07:35PM 41.8833 -87.9667 54° Northeast 156 180 2,400 -780 Descending Chicago TRACON
07:36PM 41.9167 -87.9333 37° Northeast 127 146 1,600 -780 Descending Chicago TRACON
07:37PM 41.9500 -87.9000 37° Northeast 130 150 900 -720 Descending Chicago TRACON
07:39PM 41.9667 -87.9000 334° Northwest  Level FlightAware Approximate
07:46PM 41.9817 -87.9067 334° Northwest  Level Estimated